createdAt,value
2018-11-25T00:00:38.152Z,47.30
2018-11-25T00:03:06.815Z,57.13
2018-11-25T00:05:35.338Z,49.97
2018-11-25T00:08:03.949Z,47.53
2018-11-25T00:10:32.504Z,49.20
2018-11-25T00:13:01.043Z,48.60
2018-11-25T00:15:29.588Z,53.30
2018-11-25T00:17:58.116Z,51.80
2018-11-25T00:20:26.678Z,50.33
2018-11-25T00:22:55.255Z,45.97
2018-11-25T00:25:23.760Z,44.60
2018-11-25T00:27:52.305Z,42.43
2018-11-25T00:30:20.891Z,47.97
2018-11-25T00:32:49.435Z,44.00
2018-11-25T00:35:17.957Z,40.07
2018-11-25T00:37:48.580Z,48.37
2018-11-25T00:40:15.475Z,49.90
2018-11-25T00:42:44.203Z,44.93
2018-11-25T00:45:19.569Z,47.23
2018-11-25T00:47:48.498Z,43.93
2018-11-25T00:50:17.055Z,44.83
2018-11-25T00:52:45.603Z,39.93
2018-11-25T00:55:15.520Z,45.60
2018-11-25T00:57:44.094Z,50.77
2018-11-25T01:00:15.902Z,41.60
2018-11-25T01:02:44.620Z,48.67
2018-11-25T01:05:13.128Z,43.97
2018-11-25T01:07:41.677Z,46.47
2018-11-25T01:10:11.802Z,42.93
2018-11-25T01:12:40.335Z,42.07
2018-11-25T01:15:09.871Z,42.63
2018-11-25T01:17:38.403Z,45.43
2018-11-25T01:20:07.862Z,38.90
2018-11-25T01:22:36.389Z,38.13
2018-11-25T01:25:05.388Z,35.47
2018-11-25T01:27:33.976Z,33.90
2018-11-25T01:30:02.521Z,36.57
2018-11-25T01:32:31.091Z,34.47
2018-11-25T01:35:01.128Z,38.93
2018-11-25T01:37:28.181Z,28.93
2018-11-25T01:39:56.695Z,34.17
2018-11-25T01:42:25.252Z,34.70
2018-11-25T01:44:53.798Z,35.30
2018-11-25T01:47:22.313Z,33.87
2018-11-25T01:49:50.821Z,30.43
2018-11-25T01:52:19.338Z,31.30
2018-11-25T01:54:47.883Z,37.23
2018-11-25T01:57:16.387Z,35.50
2018-11-25T01:59:44.922Z,29.43
2018-11-25T02:02:13.456Z,29.47
2018-11-25T02:04:41.991Z,30.50
2018-11-25T02:07:10.507Z,33.60
2018-11-25T02:09:39.008Z,32.97
2018-11-25T02:12:07.533Z,32.20
2018-11-25T02:14:36.062Z,33.10
2018-11-25T02:17:04.599Z,33.77
2018-11-25T02:19:33.113Z,30.20
2018-11-25T02:22:01.667Z,29.20
2018-11-25T02:24:30.166Z,29.50
2018-11-25T02:26:58.724Z,34.27
2018-11-25T02:29:27.357Z,31.33
2018-11-25T02:31:55.894Z,31.63
2018-11-25T02:34:24.428Z,30.73
2018-11-25T02:36:53.033Z,33.10
2018-11-25T02:39:21.587Z,32.40
2018-11-25T02:41:50.090Z,34.87
2018-11-25T02:44:18.579Z,31.97
2018-11-25T02:46:47.088Z,30.57
2018-11-25T02:49:15.628Z,30.63
2018-11-25T02:51:44.138Z,34.13
2018-11-25T02:54:12.672Z,28.93
2018-11-25T02:56:41.209Z,28.77
2018-11-25T02:59:09.721Z,31.63
2018-11-25T03:01:38.315Z,42.43
2018-11-25T03:04:06.824Z,34.70
2018-11-25T03:06:35.365Z,35.13
2018-11-25T03:09:05.448Z,31.05
2018-11-25T03:11:34.144Z,31.80
2018-11-25T03:14:02.837Z,35.17
2018-11-25T03:16:31.343Z,28.13
2018-11-25T03:18:59.983Z,31.33
2018-11-25T03:21:28.492Z,36.80
2018-11-25T03:23:57.003Z,31.45
2018-11-25T03:26:25.525Z,30.87
2018-11-25T03:28:54.061Z,27.10
2018-11-25T03:31:22.614Z,38.33
2018-11-25T03:33:51.303Z,34.10
2018-11-25T03:36:19.820Z,38.33
2018-11-25T03:38:48.369Z,29.20
2018-11-25T03:41:16.899Z,30.33
2018-11-25T03:43:45.403Z,28.77
2018-11-25T03:46:13.921Z,34.03
2018-11-25T03:48:42.453Z,34.17
2018-11-25T03:51:10.963Z,32.77
2018-11-25T03:53:39.511Z,36.50
2018-11-25T03:56:08.033Z,30.80
2018-11-25T03:58:36.557Z,38.87
2018-11-25T04:01:05.219Z,36.53
2018-11-25T04:03:33.719Z,36.73
2018-11-25T04:06:02.266Z,40.93
2018-11-25T04:08:30.817Z,26.47
2018-11-25T04:10:59.440Z,34.87
2018-11-25T04:13:28.007Z,35.50
2018-11-25T04:15:56.549Z,43.67
2018-11-25T04:18:25.093Z,39.03
2018-11-25T04:20:53.607Z,47.33
2018-11-25T04:23:22.140Z,37.00
2018-11-25T04:25:50.657Z,41.17
2018-11-25T04:28:19.298Z,45.50
2018-11-25T04:30:47.864Z,43.33
2018-11-25T04:33:16.408Z,44.37
2018-11-25T04:35:44.950Z,43.47
2018-11-25T04:38:13.488Z,39.70
2018-11-25T04:40:42.054Z,38.63
2018-11-25T04:43:10.575Z,39.80
2018-11-25T04:45:39.110Z,38.07
2018-11-25T04:48:07.653Z,46.30
2018-11-25T04:50:36.256Z,43.17
2018-11-25T04:53:04.845Z,46.60
2018-11-25T04:55:33.406Z,52.60
2018-11-25T04:58:01.989Z,41.00
2018-11-25T05:00:30.496Z,36.57
2018-11-25T05:02:59.035Z,43.70
2018-11-25T05:05:27.570Z,46.50
2018-11-25T05:07:56.148Z,52.10
2018-11-25T05:10:24.694Z,56.97
2018-11-25T05:12:53.304Z,49.47
2018-11-25T05:15:21.942Z,56.00
2018-11-25T05:17:50.480Z,37.30
2018-11-25T05:20:19.365Z,46.17
2018-11-25T05:22:47.866Z,58.50
2018-11-25T05:25:16.861Z,43.60
2018-11-25T05:27:45.389Z,43.17
2018-11-25T05:30:14.323Z,58.17
2018-11-25T05:32:42.838Z,41.37
2018-11-25T05:35:12.775Z,55.17
2018-11-25T05:37:41.316Z,48.87
2018-11-25T05:40:10.420Z,42.13
2018-11-25T05:42:38.988Z,54.13
2018-11-25T05:45:09.123Z,43.70
2018-11-25T05:47:37.695Z,61.40
2018-11-25T05:50:07.200Z,57.97
2018-11-25T05:52:35.790Z,56.77
2018-11-25T05:55:05.013Z,52.50
2018-11-25T05:57:33.597Z,51.90
2018-11-25T06:00:02.165Z,49.03
2018-11-25T06:02:30.677Z,52.37
2018-11-25T06:04:59.204Z,55.93
2018-11-25T06:07:27.721Z,54.83
2018-11-25T06:09:56.276Z,48.77
2018-11-25T06:12:25.428Z,54.10
2018-11-25T06:14:53.950Z,50.30
2018-11-25T06:17:22.465Z,71.87
2018-11-25T06:19:51.022Z,48.30
2018-11-25T06:22:20.585Z,50.87
2018-11-25T06:24:49.178Z,54.33
2018-11-25T06:27:17.749Z,68.20
2018-11-25T06:29:46.323Z,67.47
2018-11-25T06:32:14.904Z,65.97
2018-11-25T06:34:43.437Z,58.10
2018-11-25T06:37:11.970Z,48.83
2018-11-25T06:39:40.479Z,68.43
2018-11-25T06:42:09.033Z,67.03
2018-11-25T06:44:37.533Z,65.53
2018-11-25T06:47:06.194Z,64.67
2018-11-25T06:49:34.705Z,62.63
2018-11-25T06:52:03.211Z,55.07
2018-11-25T06:54:31.750Z,53.87
2018-11-25T06:57:00.293Z,70.03
2018-11-25T06:59:28.813Z,76.63
2018-11-25T07:01:57.303Z,53.93
2018-11-25T07:04:25.809Z,68.07
2018-11-25T07:06:54.339Z,61.43
2018-11-25T07:09:22.862Z,54.67
2018-11-25T07:11:51.389Z,55.07
2018-11-25T07:14:21.525Z,59.50
2018-11-25T07:16:50.072Z,60.33
2018-11-25T07:19:18.733Z,69.67
2018-11-25T07:21:47.314Z,78.77
2018-11-25T07:24:16.687Z,65.43
2018-11-25T07:26:45.392Z,59.30
2018-11-25T07:29:13.902Z,73.63
2018-11-25T07:31:46.289Z,59.00
2018-11-25T07:34:15.733Z,48.77
2018-11-25T07:36:44.300Z,64.47
2018-11-25T07:39:12.826Z,76.47
2018-11-25T07:41:41.386Z,60.63
2018-11-25T07:44:09.895Z,64.50
2018-11-25T07:46:38.420Z,50.63
2018-11-25T07:49:06.929Z,57.20
2018-11-25T07:51:35.438Z,74.53
2018-11-25T07:54:03.959Z,60.83
2018-11-25T07:56:32.651Z,64.70
2018-11-25T07:59:01.270Z,71.37
2018-11-25T08:01:29.828Z,66.47
2018-11-25T08:04:01.945Z,54.83
2018-11-25T08:06:30.640Z,64.60
2018-11-25T08:08:59.258Z,57.83
2018-11-25T08:11:27.805Z,63.63
2018-11-25T08:13:56.346Z,60.93
2018-11-25T08:16:25.035Z,62.03
2018-11-25T08:18:53.624Z,66.10
2018-11-25T08:21:22.200Z,56.43
2018-11-25T08:23:50.810Z,59.53
2018-11-25T08:26:19.375Z,57.67
2018-11-25T08:28:47.941Z,59.57
2018-11-25T08:31:16.496Z,53.20
2018-11-25T08:33:45.427Z,61.70
2018-11-25T08:36:13.962Z,59.20
2018-11-25T08:38:42.570Z,49.80
2018-11-25T08:41:11.068Z,55.30
2018-11-25T08:43:39.569Z,53.73
2018-11-25T08:46:08.139Z,54.97
2018-11-25T08:48:36.719Z,54.93
2018-11-25T08:51:05.514Z,50.93
2018-11-25T08:53:34.027Z,55.13
2018-11-25T08:56:02.672Z,58.27
2018-11-25T08:58:31.222Z,49.17
2018-11-25T09:00:59.772Z,50.73
2018-11-25T09:03:28.405Z,51.50
2018-11-25T09:05:56.976Z,56.53
2018-11-25T09:08:25.671Z,47.57
2018-11-25T09:10:54.262Z,52.83
2018-11-25T09:13:22.910Z,49.23
2018-11-25T09:15:52.376Z,46.80
2018-11-25T09:18:20.919Z,44.57
2018-11-25T09:20:50.187Z,47.87
2018-11-25T09:23:18.717Z,50.90
2018-11-25T09:25:47.315Z,51.30
2018-11-25T09:28:15.877Z,54.97
2018-11-25T09:30:45.646Z,57.27
2018-11-25T09:33:14.210Z,58.55
2018-11-25T09:35:43.433Z,50.70
2018-11-25T09:38:12.137Z,54.45
2018-11-25T09:40:40.773Z,54.57
2018-11-25T09:43:09.411Z,55.30
2018-11-25T09:48:19.009Z,59.37
2018-11-25T09:50:50.198Z,49.80
2018-11-25T09:53:20.334Z,68.13
2018-11-25T09:55:49.025Z,66.67
2018-11-25T09:58:25.266Z,54.53
2018-11-25T10:00:47.706Z,61.03
2018-11-25T10:03:16.453Z,51.13
2018-11-25T10:05:49.406Z,67.40
2018-11-25T10:08:19.254Z,69.13
2018-11-25T10:10:56.504Z,67.87
2018-11-25T11:42:15.066Z,62.70
2018-11-25T11:45:04.551Z,55.93
2018-11-25T11:47:44.697Z,52.03
2018-11-25T11:50:25.334Z,57.90
2018-11-25T11:53:11.965Z,60.33
2018-11-25T11:56:03.285Z,52.23
2018-11-25T11:58:46.050Z,49.00
2018-11-25T14:53:12.032Z,66.53
2018-11-25T14:55:40.536Z,71.53
2018-11-25T14:58:09.094Z,67.07
2018-11-25T15:00:37.590Z,64.97
2018-11-25T15:03:06.722Z,67.47
2018-11-25T15:05:40.891Z,62.27
2018-11-25T15:08:10.100Z,66.53
2018-11-25T15:10:38.675Z,49.23
2018-11-25T15:13:07.355Z,56.27
2018-11-25T15:15:35.886Z,62.63
2018-11-25T15:18:04.441Z,72.40
2018-11-25T15:20:33.069Z,65.67
2018-11-25T15:23:02.525Z,49.23
2018-11-25T15:25:32.052Z,74.90
2018-11-25T15:28:00.613Z,61.37
2018-11-25T15:30:29.829Z,67.07
2018-11-25T15:32:58.353Z,58.57
2018-11-25T15:35:26.848Z,67.73
2018-11-25T15:37:57.785Z,58.27
2018-11-25T15:40:29.311Z,56.50
2018-11-25T15:42:57.848Z,49.60
2018-11-25T15:45:26.384Z,64.87
2018-11-25T15:47:56.329Z,53.20
2018-11-25T15:50:25.503Z,54.87
2018-11-25T15:52:54.191Z,57.40
2018-11-25T15:55:22.764Z,61.43
2018-11-25T15:57:51.853Z,57.17
2018-11-25T16:00:21.033Z,67.33
2018-11-25T16:02:49.552Z,57.33
2018-11-25T16:05:19.235Z,56.87
2018-11-25T16:07:47.721Z,65.60
2018-11-25T16:10:16.309Z,44.47
2018-11-25T16:12:46.229Z,68.80
2018-11-25T16:15:15.481Z,60.47
2018-11-25T16:17:43.971Z,57.43
2018-11-25T16:20:13.345Z,67.33
2018-11-25T16:22:41.820Z,66.70
2018-11-25T16:25:12.493Z,61.87
2018-11-25T16:27:41.213Z,56.17
2018-11-25T16:30:10.554Z,60.13
2018-11-25T16:32:39.062Z,56.47
2018-11-25T16:35:08.359Z,63.47
2018-11-25T16:37:37.191Z,52.67
2018-11-25T16:40:09.420Z,58.93
2018-11-25T16:42:37.924Z,58.00
2018-11-25T16:45:08.157Z,58.87
2018-11-25T16:47:37.588Z,64.20
2018-11-25T16:50:07.345Z,59.23
2018-11-25T16:52:35.840Z,61.50
2018-11-25T16:55:05.076Z,57.30
2018-11-25T16:57:33.568Z,59.57
2018-11-25T17:00:02.076Z,62.13
2018-11-25T17:02:31.310Z,60.10
2018-11-25T17:04:59.777Z,62.67
2018-11-25T17:07:28.292Z,56.67
2018-11-25T17:09:56.829Z,57.87
2018-11-25T17:12:25.404Z,57.67
2018-11-25T17:14:53.915Z,53.97
2018-11-25T17:17:22.495Z,63.70
2018-11-25T17:19:50.990Z,54.00
2018-11-25T17:22:19.487Z,64.53
2018-11-25T17:24:48.003Z,60.47
2018-11-25T17:27:16.501Z,58.30
2018-11-25T17:29:45.016Z,51.83
2018-11-25T17:32:13.509Z,61.30
2018-11-25T17:34:41.994Z,56.03
2018-11-25T17:37:10.496Z,67.03
2018-11-25T17:39:38.988Z,61.37
2018-11-25T17:42:07.605Z,63.30
2018-11-25T17:44:38.753Z,46.13
2018-11-25T17:47:07.268Z,61.57
2018-11-25T17:49:35.747Z,71.17
2018-11-25T17:52:05.591Z,61.80
2018-11-25T17:54:34.033Z,59.20
2018-11-25T17:57:02.529Z,55.23
2018-11-25T17:59:31.010Z,72.93
2018-11-25T18:01:59.508Z,52.60
2018-11-25T18:04:27.985Z,62.67
2018-11-25T18:06:56.464Z,66.17
2018-11-25T18:09:24.965Z,65.73
2018-11-25T18:11:53.590Z,58.00
2018-11-25T18:14:22.103Z,65.93
2018-11-25T18:16:50.652Z,59.83
2018-11-25T18:19:22.556Z,63.73
2018-11-25T18:21:56.144Z,62.27
2018-11-25T18:24:24.735Z,61.73
2018-11-25T18:26:53.284Z,65.87
2018-11-25T18:29:21.780Z,65.67
2018-11-25T18:31:50.279Z,55.80
2018-11-25T18:34:19.323Z,62.30
2018-11-25T18:36:47.944Z,71.27
2018-11-25T18:39:16.462Z,64.20
2018-11-25T18:41:44.959Z,69.77
2018-11-25T18:44:13.602Z,60.43
2018-11-25T18:46:47.605Z,62.93
2018-11-25T18:49:10.897Z,65.20
2018-11-25T18:51:39.390Z,64.80
2018-11-25T18:54:08.225Z,64.20
2018-11-25T18:56:36.716Z,72.73
2018-11-25T18:59:05.491Z,69.67
2018-11-25T19:01:37.248Z,48.03
2018-11-25T19:04:05.734Z,68.93
2018-11-25T19:06:34.221Z,66.63
2018-11-25T19:09:02.827Z,62.77
2018-11-25T19:11:31.337Z,64.20
2018-11-25T19:13:59.834Z,72.17
2018-11-25T19:16:28.312Z,64.10
2018-11-25T19:18:56.823Z,63.50
2018-11-25T19:21:25.399Z,68.60
2018-11-25T19:23:53.879Z,66.73
2018-11-25T19:26:22.364Z,68.20
2018-11-25T19:28:50.863Z,63.40
2018-11-25T19:31:19.381Z,60.33
2018-11-25T19:33:47.909Z,64.07
2018-11-25T19:36:16.451Z,72.10
2018-11-25T19:38:44.948Z,68.40
2018-11-25T19:41:13.451Z,67.47
2018-11-25T19:43:41.972Z,68.47
2018-11-25T19:46:10.466Z,68.47
2018-11-25T19:48:38.990Z,70.17
2018-11-25T19:51:07.492Z,69.30
2018-11-25T19:53:36.017Z,70.90
2018-11-25T19:56:04.519Z,64.40
2018-11-25T19:58:33.022Z,74.17
2018-11-25T20:01:01.510Z,62.87
2018-11-25T20:03:30.032Z,65.33
2018-11-25T20:05:58.565Z,61.40
2018-11-25T20:08:27.127Z,73.10
2018-11-25T20:10:55.613Z,70.30
2018-11-25T20:13:24.101Z,69.23
2018-11-25T20:15:52.682Z,74.23
2018-11-25T20:18:21.194Z,66.77
2018-11-25T20:20:55.347Z,71.30
2018-11-25T20:23:23.865Z,73.53
2018-11-25T20:25:52.361Z,70.70
2018-11-25T20:28:20.823Z,63.00
2018-11-25T20:34:01.854Z,73.83
2018-11-25T20:36:34.528Z,64.77
2018-11-25T20:39:26.032Z,62.07
2018-11-25T20:41:57.133Z,75.33
2018-11-25T20:44:27.249Z,66.57
2018-11-25T20:47:06.789Z,65.57
2018-11-25T20:49:37.915Z,60.50
2018-11-25T20:52:27.829Z,70.53
2018-11-25T20:54:59.334Z,64.67
2018-11-25T20:57:32.682Z,64.23
2018-11-25T21:00:04.960Z,73.80
2018-11-25T21:02:37.483Z,66.57
2018-11-25T21:05:14.398Z,61.57
2018-11-25T21:07:45.283Z,54.60
2018-11-25T21:10:17.307Z,59.97
2018-11-25T21:12:51.530Z,62.03
2018-11-25T21:15:24.019Z,51.50
2018-11-25T21:17:55.369Z,60.20
2018-11-25T21:20:27.964Z,54.47
2018-11-25T21:23:00.899Z,64.40
2018-11-25T21:25:32.121Z,58.90
2018-11-25T21:28:04.801Z,56.90
2018-11-25T21:30:35.991Z,50.80
2018-11-25T21:33:07.387Z,54.80
2018-11-25T21:35:40.086Z,59.13
2018-11-25T21:38:12.694Z,53.87
2018-11-25T21:40:45.098Z,60.67
2018-11-25T21:43:16.218Z,53.80
2018-11-25T21:45:48.717Z,55.80
2018-11-25T21:48:20.194Z,52.50
2018-11-25T21:50:51.290Z,55.70
2018-11-25T21:53:23.737Z,50.67
2018-11-25T21:55:56.395Z,54.57
2018-11-25T21:58:28.752Z,50.67
2018-11-25T22:00:57.781Z,50.93
2018-11-25T22:03:30.698Z,53.83
2018-11-25T22:06:02.023Z,54.53
2018-11-25T22:08:34.355Z,52.93
2018-11-25T22:11:05.910Z,51.63
2018-11-25T22:13:38.643Z,54.87
2018-11-25T22:16:14.680Z,50.20
2018-11-25T22:18:45.486Z,49.83
2018-11-25T22:21:17.369Z,51.30
2018-11-25T22:23:48.053Z,56.03
2018-11-25T22:26:19.096Z,52.83
2018-11-25T22:28:50.288Z,55.00
2018-11-25T22:31:21.427Z,55.57
2018-11-25T22:33:53.952Z,46.47
2018-11-25T22:36:26.551Z,51.10
2018-11-25T22:38:57.605Z,51.67
2018-11-25T22:41:29.018Z,56.90
2018-11-25T22:43:58.373Z,53.27
2018-11-25T22:46:30.008Z,50.97
2018-11-25T22:49:01.004Z,48.57
2018-11-25T22:51:32.222Z,49.23
2018-11-25T22:54:03.191Z,50.07
2018-11-25T22:56:34.258Z,51.47
2018-11-25T22:59:03.612Z,53.30
2018-11-25T23:01:34.889Z,50.73
2018-11-25T23:04:27.281Z,55.37
2018-11-25T23:07:02.204Z,46.87
2018-11-25T23:09:35.510Z,49.60
2018-11-25T23:12:07.911Z,54.47
2018-11-25T23:14:39.132Z,45.63
2018-11-25T23:17:10.242Z,51.43
2018-11-25T23:19:42.585Z,47.37
2018-11-25T23:22:13.889Z,57.53
2018-11-25T23:24:45.338Z,57.77
2018-11-25T23:27:16.385Z,58.90
2018-11-25T23:29:48.914Z,54.10
2018-11-25T23:32:21.294Z,53.37
2018-11-25T23:34:52.616Z,66.60
2018-11-25T23:37:25.302Z,58.33
2018-11-25T23:39:57.740Z,59.80
2018-11-25T23:42:30.307Z,54.67
2018-11-25T23:45:01.551Z,54.87
2018-11-25T23:47:34.649Z,49.63
2018-11-25T23:50:06.318Z,60.00
2018-11-25T23:52:38.869Z,60.90
2018-11-25T23:55:12.607Z,58.37
2018-11-25T23:57:45.376Z,44.30
